Time;durP1;ratioP1;P1;durP2;ratioP2;P2;SDS_P1;SDS_P2;PMS_P1;PMS_P2;Temp;Humidity;BMP_temperature;BMP_pressure;BME280_temperature;BME280_humidity;BME280_pressure;Samples;Min_cycle;Max_cycle;Signal;HPM_P1;HPM_P2
2022/10/16 00:00:52;;;;;;;17.80;16.80;;;;;;;;;;5012415;28;20060;-67
2022/10/16 00:03:17;;;;;;;18.02;17.02;;;;;;;;;;5017696;28;20044;-67
2022/10/16 00:05:44;;;;;;;18.17;17.10;;;;;;;;;;5012953;28;20033;-67
2022/10/16 00:08:13;;;;;;;18.63;17.63;;;;;;;;;;5013936;28;20038;-67
2022/10/16 00:10:38;;;;;;;18.35;17.33;;;;;;;;;;5016000;28;20052;-67
2022/10/16 00:13:04;;;;;;;18.30;17.30;;;;;;;;;;5014660;28;20258;-67
2022/10/16 00:15:32;;;;;;;19.52;18.45;;;;;;;;;;5016601;28;20128;-66
2022/10/16 00:17:58;;;;;;;18.88;17.83;;;;;;;;;;5014865;28;20326;-66
2022/10/16 00:20:23;;;;;;;17.52;16.55;;;;;;;;;;5014772;28;20327;-66
2022/10/16 00:22:48;;;;;;;18.77;17.23;;;;;;;;;;5015694;28;20111;-67
2022/10/16 00:25:14;;;;;;;18.17;17.17;;;;;;;;;;5019395;28;20093;-67
2022/10/16 00:27:39;;;;;;;17.10;16.13;;;;;;;;;;5019933;28;20060;-67
2022/10/16 00:30:05;;;;;;;17.80;16.80;;;;;;;;;;5020179;28;20021;-67
2022/10/16 00:32:30;;;;;;;17.20;16.20;;;;;;;;;;5016070;28;20049;-67
2022/10/16 00:34:56;;;;;;;16.80;15.77;;;;;;;;;;5017717;28;20062;-66
2022/10/16 00:37:21;;;;;;;16.90;15.95;;;;;;;;;;5016026;28;20037;-65
2022/10/16 00:39:47;;;;;;;16.27;15.38;;;;;;;;;;5018560;28;20026;-66
2022/10/16 00:42:18;;;;;;;15.65;14.68;;;;;;;;;;5017618;28;20092;-67
2022/10/16 00:45:04;;;;;;;15.50;14.60;;;;;;;;;;5016728;28;20593;-66
2022/10/16 00:47:32;;;;;;;15.02;14.18;;;;;;;;;;5020827;28;20033;-66
2022/10/16 00:50:11;;;;;;;16.23;15.32;;;;;;;;;;5018734;28;20040;-67
2022/10/16 00:52:41;;;;;;;17.05;16.10;;;;;;;;;;5015355;28;20025;-66
2022/10/16 00:55:09;;;;;;;16.90;15.98;;;;;;;;;;5017000;28;20029;-66
2022/10/16 00:57:34;;;;;;;17.17;16.17;;;;;;;;;;5021114;28;20123;-67
2022/10/16 01:00:01;;;;;;;16.60;15.68;;;;;;;;;;5018304;28;20175;-67
2022/10/16 01:02:26;;;;;;;16.55;15.60;;;;;;;;;;5016995;28;20033;-67
2022/10/16 01:04:53;;;;;;;15.65;14.75;;;;;;;;;;5016342;28;20448;-67
2022/10/16 01:07:34;;;;;;;16.00;15.10;;;;;;;;;;5019915;28;20445;-67
2022/10/16 01:10:31;;;;;;;16.05;15.15;;;;;;;;;;5015753;28;20126;-67
2022/10/16 01:13:10;;;;;;;16.65;15.75;;;;;;;;;;5017686;28;20430;-67
2022/10/16 01:15:49;;;;;;;19.08;17.98;;;;;;;;;;5018972;28;20072;-67
2022/10/16 01:18:21;;;;;;;18.83;17.45;;;;;;;;;;5018946;28;20092;-67
2022/10/16 01:20:54;;;;;;;17.42;16.48;;;;;;;;;;5019172;28;20105;-67
2022/10/16 01:23:39;;;;;;;18.17;17.17;;;;;;;;;;5017100;28;20047;-67
2022/10/16 01:26:19;;;;;;;19.10;18.02;;;;;;;;;;5017859;28;20126;-67
2022/10/16 01:29:15;;;;;;;19.92;18.83;;;;;;;;;;5021799;28;20032;-67
2022/10/16 01:31:47;;;;;;;19.83;18.73;;;;;;;;;;5018364;28;20025;-67
2022/10/16 01:34:14;;;;;;;23.15;21.95;;;;;;;;;;5014853;28;20057;-67
2022/10/16 01:36:53;;;;;;;23.55;22.27;;;;;;;;;;5019964;28;20434;-67
2022/10/16 01:39:22;;;;;;;22.00;20.80;;;;;;;;;;5019214;28;20033;-67
2022/10/16 01:41:55;;;;;;;22.40;21.20;;;;;;;;;;5019328;28;20030;-67
2022/10/16 01:44:27;;;;;;;24.17;22.88;;;;;;;;;;5016857;28;20047;-67
2022/10/16 01:46:54;;;;;;;25.00;23.70;;;;;;;;;;5016250;28;20033;-67
2022/10/16 01:49:22;;;;;;;25.23;23.92;;;;;;;;;;5016211;28;20634;-67
2022/10/16 01:51:53;;;;;;;26.40;25.00;;;;;;;;;;5014841;28;20034;-67
2022/10/16 01:54:19;;;;;;;26.05;24.65;;;;;;;;;;5016423;28;20029;-66
2022/10/16 01:56:47;;;;;;;24.45;23.15;;;;;;;;;;5015053;28;20076;-67
2022/10/16 01:59:16;;;;;;;26.75;25.35;;;;;;;;;;5017510;28;20060;-67
2022/10/16 02:01:48;;;;;;;26.40;25.00;;;;;;;;;;5019151;28;20041;-68
2022/10/16 02:04:34;;;;;;;24.52;23.23;;;;;;;;;;5016284;28;20030;-67
2022/10/16 02:07:00;;;;;;;24.13;22.83;;;;;;;;;;5015740;28;20026;-67
2022/10/16 02:09:26;;;;;;;24.25;22.95;;;;;;;;;;5018702;28;20064;-68
2022/10/16 02:11:54;;;;;;;23.75;22.45;;;;;;;;;;5010220;28;20049;-68
2022/10/16 02:14:21;;;;;;;24.67;23.33;;;;;;;;;;5019950;28;20022;-68
2022/10/16 02:16:47;;;;;;;24.15;22.85;;;;;;;;;;5017622;28;20377;-68
2022/10/16 02:19:13;;;;;;;25.15;23.85;;;;;;;;;;5018319;28;20117;-68
2022/10/16 02:21:43;;;;;;;26.13;24.73;;;;;;;;;;5018858;28;20025;-68
2022/10/16 02:24:28;;;;;;;25.52;24.23;;;;;;;;;;5017020;28;20124;-67
2022/10/16 02:27:09;;;;;;;26.08;24.67;;;;;;;;;;5017296;28;20048;-67
2022/10/16 02:29:40;;;;;;;23.38;22.15;;;;;;;;;;5017212;28;20095;-68
2022/10/16 02:32:07;;;;;;;23.80;22.50;;;;;;;;;;5017338;28;20030;-67
2022/10/16 02:34:33;;;;;;;23.75;22.45;;;;;;;;;;5015645;28;20071;-68
2022/10/16 02:37:01;;;;;;;24.33;23.02;;;;;;;;;;5015834;28;20029;-68
2022/10/16 02:39:29;;;;;;;24.25;22.95;;;;;;;;;;5016031;28;20030;-68
2022/10/16 02:41:54;;;;;;;24.83;23.52;;;;;;;;;;5016337;28;20022;-68
2022/10/16 02:44:20;;;;;;;25.85;24.35;;;;;;;;;;5015764;28;20377;-68
2022/10/16 02:46:45;;;;;;;24.92;23.63;;;;;;;;;;5014978;28;20137;-67
2022/10/16 02:49:10;;;;;;;25.85;24.48;;;;;;;;;;5015256;28;20026;-67
2022/10/16 02:51:36;;;;;;;25.08;23.77;;;;;;;;;;5018629;28;20021;-67
2022/10/16 02:54:02;;;;;;;26.45;25.05;;;;;;;;;;5016666;28;20205;-67
2022/10/16 02:56:27;;;;;;;25.98;24.58;;;;;;;;;;5018858;28;20436;-68
2022/10/16 02:58:53;;;;;;;26.58;25.17;;;;;;;;;;5016657;28;20060;-68
2022/10/16 03:01:18;;;;;;;26.73;25.33;;;;;;;;;;5015352;28;20042;-68
2022/10/16 03:03:43;;;;;;;26.38;24.90;;;;;;;;;;5015313;28;20073;-67
2022/10/16 03:06:09;;;;;;;27.17;25.77;;;;;;;;;;5016572;28;20382;-67
2022/10/16 03:08:34;;;;;;;29.38;27.88;;;;;;;;;;5015947;28;20040;-67
2022/10/16 03:10:59;;;;;;;25.75;24.35;;;;;;;;;;5016135;28;20029;-67
2022/10/16 03:13:25;;;;;;;27.42;26.02;;;;;;;;;;5014034;28;20231;-67
2022/10/16 03:15:50;;;;;;;25.67;24.33;;;;;;;;;;5017490;28;20021;-67
2022/10/16 03:18:16;;;;;;;27.98;26.52;;;;;;;;;;5016830;28;20240;-66
2022/10/16 03:20:42;;;;;;;25.83;24.42;;;;;;;;;;5017720;28;20022;-66
2022/10/16 03:23:08;;;;;;;28.65;27.15;;;;;;;;;;5015498;28;20105;-66
2022/10/16 03:25:34;;;;;;;29.70;28.10;;;;;;;;;;5015457;28;20116;-66
2022/10/16 03:27:59;;;;;;;26.77;25.38;;;;;;;;;;5016938;28;20227;-66
2022/10/16 03:30:24;;;;;;;27.08;25.63;;;;;;;;;;5016578;28;20040;-66
2022/10/16 03:32:53;;;;;;;25.10;23.80;;;;;;;;;;5016201;28;20153;-67
2022/10/16 03:35:19;;;;;;;28.15;26.67;;;;;;;;;;5015771;28;20466;-66
2022/10/16 03:37:45;;;;;;;27.30;25.88;;;;;;;;;;5016152;28;20057;-66
2022/10/16 03:40:11;;;;;;;28.50;27.00;;;;;;;;;;5016248;28;20030;-66
2022/10/16 03:42:36;;;;;;;26.40;25.00;;;;;;;;;;5015899;28;20033;-67
2022/10/16 03:45:01;;;;;;;25.85;24.45;;;;;;;;;;5015579;28;20073;-67
2022/10/16 03:47:27;;;;;;;27.30;25.85;;;;;;;;;;5013490;28;20538;-67
2022/10/16 03:49:52;;;;;;;27.30;25.85;;;;;;;;;;5014001;28;20021;-66
2022/10/16 03:52:18;;;;;;;30.17;28.60;;;;;;;;;;5017202;28;20057;-67
2022/10/16 03:54:43;;;;;;;26.67;25.27;;;;;;;;;;5018169;28;20105;-67
2022/10/16 03:57:08;;;;;;;29.80;28.20;;;;;;;;;;5017143;28;20026;-66
2022/10/16 03:59:34;;;;;;;28.10;26.60;;;;;;;;;;5017707;28;20448;-67
2022/10/16 04:01:59;;;;;;;27.73;26.27;;;;;;;;;;5014653;28;20111;-67
2022/10/16 04:04:24;;;;;;;28.45;26.98;;;;;;;;;;5013940;28;20026;-67
2022/10/16 04:06:50;;;;;;;28.10;26.65;;;;;;;;;;5010810;28;20096;-66
2022/10/16 04:09:16;;;;;;;25.77;24.42;;;;;;;;;;5015523;28;20083;-66
2022/10/16 04:11:41;;;;;;;26.25;24.85;;;;;;;;;;5016009;28;20037;-66
2022/10/16 04:14:06;;;;;;;27.38;25.95;;;;;;;;;;5012346;28;20519;-68
2022/10/16 04:16:32;;;;;;;28.50;27.00;;;;;;;;;;5013619;28;20046;-67
2022/10/16 04:18:57;;;;;;;26.88;25.45;;;;;;;;;;5017136;28;20702;-67
2022/10/16 04:21:22;;;;;;;27.08;25.67;;;;;;;;;;5015473;28;20423;-68
2022/10/16 04:23:49;;;;;;;27.08;25.67;;;;;;;;;;5013798;28;20368;-68
2022/10/16 04:26:14;;;;;;;25.45;24.05;;;;;;;;;;5012389;28;20756;-66
2022/10/16 04:28:40;;;;;;;26.35;24.88;;;;;;;;;;5013985;28;20104;-68
2022/10/16 04:31:06;;;;;;;23.05;21.67;;;;;;;;;;5015824;28;20149;-66
2022/10/16 04:33:32;;;;;;;24.65;23.35;;;;;;;;;;5014050;28;20029;-67
2022/10/16 04:35:59;;;;;;;25.73;24.33;;;;;;;;;;5014121;28;20095;-72
2022/10/16 04:38:24;;;;;;;27.95;26.48;;;;;;;;;;5013362;28;20054;-72
2022/10/16 04:40:50;;;;;;;28.50;27.02;;;;;;;;;;5014586;28;20062;-72
2022/10/16 04:43:15;;;;;;;26.63;25.23;;;;;;;;;;5008794;28;20065;-71
2022/10/16 04:45:41;;;;;;;25.98;24.63;;;;;;;;;;5013895;28;20371;-71
2022/10/16 04:48:06;;;;;;;26.60;25.20;;;;;;;;;;5019166;28;20080;-69
2022/10/16 04:50:31;;;;;;;24.95;23.65;;;;;;;;;;5017758;28;20471;-72
2022/10/16 04:52:57;;;;;;;24.92;23.63;;;;;;;;;;5018627;28;20112;-72
2022/10/16 04:55:22;;;;;;;24.33;23.02;;;;;;;;;;5014345;28;20029;-71
2022/10/16 04:57:48;;;;;;;23.40;22.17;;;;;;;;;;5016808;28;20060;-70
2022/10/16 05:00:13;;;;;;;23.67;22.40;;;;;;;;;;5014149;28;20132;-71
2022/10/16 05:02:39;;;;;;;25.33;23.98;;;;;;;;;;5012486;28;20034;-71
2022/10/16 05:05:05;;;;;;;24.77;23.48;;;;;;;;;;5015575;28;20353;-72
2022/10/16 05:07:30;;;;;;;21.52;20.38;;;;;;;;;;5015378;28;20048;-75
2022/10/16 05:09:56;;;;;;;22.58;21.38;;;;;;;;;;5020865;28;20021;-71
2022/10/16 05:12:21;;;;;;;21.92;20.65;;;;;;;;;;5018444;28;20451;-71
2022/10/16 05:14:46;;;;;;;20.45;19.35;;;;;;;;;;5019025;28;20446;-71
2022/10/16 05:17:12;;;;;;;22.05;20.88;;;;;;;;;;5019648;28;20064;-70
2022/10/16 05:19:37;;;;;;;21.23;20.05;;;;;;;;;;5018346;28;20112;-70
2022/10/16 05:22:02;;;;;;;20.17;19.08;;;;;;;;;;5020178;28;20034;-72
2022/10/16 05:24:28;;;;;;;20.60;19.48;;;;;;;;;;5019143;28;20091;-71
2022/10/16 05:26:53;;;;;;;21.92;20.73;;;;;;;;;;5016427;28;20052;-70
2022/10/16 05:29:19;;;;;;;21.45;20.30;;;;;;;;;;5015916;28;20021;-71
2022/10/16 05:31:45;;;;;;;24.63;23.33;;;;;;;;;;5018103;28;20474;-72
2022/10/16 05:34:10;;;;;;;23.77;22.50;;;;;;;;;;5024593;28;20087;-72
2022/10/16 05:36:35;;;;;;;24.10;22.70;;;;;;;;;;5022285;28;20030;-72
2022/10/16 05:39:01;;;;;;;22.33;21.13;;;;;;;;;;5024078;28;20041;-72
2022/10/16 05:41:26;;;;;;;22.13;20.92;;;;;;;;;;5021204;28;20087;-70
2022/10/16 05:43:53;;;;;;;25.15;23.80;;;;;;;;;;5022017;28;20024;-71
2022/10/16 05:46:19;;;;;;;23.25;22.02;;;;;;;;;;5022930;28;20021;-70
2022/10/16 05:48:44;;;;;;;23.88;22.58;;;;;;;;;;5018841;28;20581;-70
2022/10/16 05:51:12;;;;;;;22.20;20.98;;;;;;;;;;5020810;28;20534;-71
2022/10/16 05:53:39;;;;;;;23.63;22.27;;;;;;;;;;5018651;28;20049;-70
2022/10/16 05:56:06;;;;;;;24.63;23.30;;;;;;;;;;5017507;28;20038;-72
2022/10/16 05:58:35;;;;;;;24.48;23.17;;;;;;;;;;5019455;28;20029;-69
2022/10/16 06:01:05;;;;;;;23.02;21.80;;;;;;;;;;5017490;28;20095;-69
2022/10/16 06:03:31;;;;;;;25.23;23.92;;;;;;;;;;5015520;28;20026;-74
2022/10/16 06:05:56;;;;;;;24.20;22.90;;;;;;;;;;5016583;28;20044;-70
2022/10/16 06:08:23;;;;;;;25.45;24.10;;;;;;;;;;5014636;28;20034;-72
2022/10/16 06:10:59;;;;;;;27.00;25.52;;;;;;;;;;5016383;28;20026;-72
2022/10/16 06:13:25;;;;;;;23.08;21.77;;;;;;;;;;5016609;28;20052;-72
2022/10/16 06:15:50;;;;;;;24.73;23.42;;;;;;;;;;5017011;28;20396;-72
2022/10/16 06:18:15;;;;;;;25.30;24.00;;;;;;;;;;5019912;28;20030;-72
2022/10/16 06:20:40;;;;;;;24.48;23.17;;;;;;;;;;5019743;28;20037;-72
2022/10/16 06:23:06;;;;;;;25.88;24.48;;;;;;;;;;5019221;28;20120;-71
2022/10/16 06:25:31;;;;;;;25.33;23.95;;;;;;;;;;5018857;28;20021;-72
2022/10/16 06:27:57;;;;;;;26.80;25.40;;;;;;;;;;5016979;28;20032;-71
2022/10/16 06:30:22;;;;;;;25.42;24.10;;;;;;;;;;5017026;28;20057;-71
2022/10/16 06:32:47;;;;;;;24.42;23.13;;;;;;;;;;5020071;28;20026;-70
2022/10/16 06:35:13;;;;;;;27.75;26.27;;;;;;;;;;5020819;28;20083;-70
2022/10/16 06:37:38;;;;;;;22.85;21.65;;;;;;;;;;5017864;28;20029;-70
2022/10/16 06:40:04;;;;;;;25.30;23.90;;;;;;;;;;5016682;28;20034;-70
2022/10/16 06:42:30;;;;;;;26.00;24.63;;;;;;;;;;5016151;28;20029;-71
2022/10/16 06:44:55;;;;;;;22.63;21.42;;;;;;;;;;5014992;28;20025;-71
2022/10/16 06:47:21;;;;;;;23.80;22.50;;;;;;;;;;5014643;28;20494;-71
2022/10/16 06:49:46;;;;;;;24.75;23.35;;;;;;;;;;5017581;28;20041;-72
2022/10/16 06:52:11;;;;;;;25.40;24.05;;;;;;;;;;5020360;28;20112;-70
2022/10/16 06:54:37;;;;;;;23.88;22.58;;;;;;;;;;5017106;28;20307;-71
2022/10/16 06:57:02;;;;;;;27.10;25.70;;;;;;;;;;5015592;28;20044;-71
2022/10/16 06:59:27;;;;;;;27.65;26.15;;;;;;;;;;5015781;28;20459;-71
2022/10/16 07:01:53;;;;;;;25.60;24.23;;;;;;;;;;5015905;28;20025;-71
2022/10/16 07:04:18;;;;;;;29.40;27.83;;;;;;;;;;5015820;28;20033;-71
2022/10/16 07:06:44;;;;;;;25.20;23.85;;;;;;;;;;5017183;28;20616;-73
2022/10/16 07:09:10;;;;;;;27.80;26.30;;;;;;;;;;5015836;28;20095;-72
2022/10/16 07:11:39;;;;;;;25.63;24.25;;;;;;;;;;5016264;28;20037;-72
2022/10/16 07:14:09;;;;;;;26.55;25.15;;;;;;;;;;5016033;28;20040;-71
2022/10/16 07:16:34;;;;;;;24.60;23.30;;;;;;;;;;5017524;28;20328;-66
2022/10/16 07:19:02;;;;;;;24.98;23.60;;;;;;;;;;5015780;28;20056;-66
2022/10/16 07:21:31;;;;;;;22.85;21.60;;;;;;;;;;5015104;28;20529;-66
2022/10/16 07:23:58;;;;;;;25.02;23.63;;;;;;;;;;5013627;28;20053;-65
2022/10/16 07:26:25;;;;;;;23.95;22.65;;;;;;;;;;5018595;28;20341;-65
2022/10/16 07:28:51;;;;;;;23.98;22.67;;;;;;;;;;5012974;28;20025;-64
2022/10/16 07:31:18;;;;;;;24.08;22.77;;;;;;;;;;5017196;28;20072;-63
2022/10/16 07:33:45;;;;;;;23.17;21.80;;;;;;;;;;5020885;28;20553;-63
2022/10/16 07:36:12;;;;;;;21.95;20.63;;;;;;;;;;5017184;28;20044;-62
2022/10/16 07:38:38;;;;;;;24.02;22.55;;;;;;;;;;5017198;28;20052;-62
2022/10/16 07:41:06;;;;;;;23.95;22.65;;;;;;;;;;5016199;28;20041;-62
2022/10/16 07:43:32;;;;;;;23.30;22.00;;;;;;;;;;5016264;28;20478;-62
2022/10/16 07:45:57;;;;;;;23.17;21.92;;;;;;;;;;5016069;28;20029;-62
2022/10/16 07:48:26;;;;;;;24.13;22.75;;;;;;;;;;5013657;28;20029;-62
2022/10/16 07:50:51;;;;;;;24.50;23.20;;;;;;;;;;5015999;28;20703;-61
2022/10/16 07:53:17;;;;;;;23.83;22.52;;;;;;;;;;5015355;28;20041;-62
2022/10/16 07:55:42;;;;;;;24.42;23.13;;;;;;;;;;5012944;28;20098;-61
2022/10/16 07:58:07;;;;;;;24.02;22.73;;;;;;;;;;5011867;28;20048;-61
2022/10/16 08:00:33;;;;;;;25.50;24.10;;;;;;;;;;5011384;28;20037;-61
2022/10/16 08:03:01;;;;;;;25.23;23.92;;;;;;;;;;5014526;28;20463;-60
2022/10/16 08:05:32;;;;;;;22.45;21.25;;;;;;;;;;5017150;28;20140;-60
2022/10/16 08:07:57;;;;;;;23.83;22.52;;;;;;;;;;5010284;28;20045;-60
2022/10/16 08:10:26;;;;;;;24.58;23.27;;;;;;;;;;5016147;28;20103;-60
2022/10/16 08:12:52;;;;;;;24.88;23.23;;;;;;;;;;5015731;28;20025;-60
2022/10/16 08:15:18;;;;;;;22.45;21.25;;;;;;;;;;5013100;28;20064;-60
2022/10/16 08:17:43;;;;;;;23.15;21.83;;;;;;;;;;5010992;28;20056;-60
2022/10/16 08:20:10;;;;;;;24.00;22.70;;;;;;;;;;5013695;28;20041;-60
2022/10/16 08:22:35;;;;;;;25.73;24.33;;;;;;;;;;5012099;28;20060;-60
2022/10/16 08:25:00;;;;;;;25.20;23.80;;;;;;;;;;5015352;28;20060;-60
2022/10/16 08:27:31;;;;;;;24.85;23.55;;;;;;;;;;5012951;28;20041;-60
2022/10/16 08:29:56;;;;;;;;;;;;;;;;;;5014651;28;20045;-60
2022/10/16 08:32:22;;;;;;;19.90;18.80;;;;;;;;;;5011999;28;19921;-60
2022/10/16 08:34:47;;;;;;;21.67;20.48;;;;;;;;;;5014745;28;20068;-60
2022/10/16 08:37:13;;;;;;;22.40;21.20;;;;;;;;;;5015701;28;20033;-60
2022/10/16 08:39:39;;;;;;;23.63;22.30;;;;;;;;;;5014985;28;20048;-61
2022/10/16 08:42:47;;;;;;;24.90;23.50;;;;;;;;;;5014465;28;20112;-61
2022/10/16 08:45:46;;;;;;;21.42;20.23;;;;;;;;;;4998017;28;20606;-60
2022/10/16 08:48:19;;;;;;;24.27;22.88;;;;;;;;;;5015266;28;20038;-60
2022/10/16 08:50:47;;;;;;;23.98;22.67;;;;;;;;;;5018852;28;20042;-60
2022/10/16 08:53:24;;;;;;;24.90;23.30;;;;;;;;;;5015751;28;20474;-60
2022/10/16 08:55:52;;;;;;;23.67;22.38;;;;;;;;;;5020743;28;20029;-60
2022/10/16 08:58:28;;;;;;;24.85;23.52;;;;;;;;;;5020380;28;20092;-67
2022/10/16 09:00:55;;;;;;;22.90;21.60;;;;;;;;;;5014403;28;20099;-68
2022/10/16 09:03:30;;;;;;;23.33;22.02;;;;;;;;;;5019055;28;20040;-68
2022/10/16 09:06:01;;;;;;;22.83;21.63;;;;;;;;;;5015893;28;20273;-67
2022/10/16 09:08:32;;;;;;;24.52;23.23;;;;;;;;;;5019819;28;20059;-68
2022/10/16 09:11:30;;;;;;;22.88;21.60;;;;;;;;;;5014812;28;20025;-67
2022/10/16 09:14:07;;;;;;;22.08;20.88;;;;;;;;;;5014764;28;20029;-67
2022/10/16 09:16:37;;;;;;;24.42;22.67;;;;;;;;;;5015555;28;20057;-67
2022/10/16 09:19:18;;;;;;;24.47;23.07;;;;;;;;;;5016075;28;20634;-68
2022/10/16 09:21:47;;;;;;;22.35;21.05;;;;;;;;;;5015815;28;20095;-68
2022/10/16 09:24:18;;;;;;;22.52;21.30;;;;;;;;;;5018156;28;20029;-68
2022/10/16 09:26:44;;;;;;;22.10;20.90;;;;;;;;;;5016958;28;20033;-68
2022/10/16 09:29:14;;;;;;;21.33;20.13;;;;;;;;;;5016938;28;20074;-68
2022/10/16 09:31:41;;;;;;;20.65;19.55;;;;;;;;;;5016028;28;20052;-69
2022/10/16 09:34:30;;;;;;;18.35;17.25;;;;;;;;;;5014212;28;20030;-69
2022/10/16 09:36:57;;;;;;;19.95;18.83;;;;;;;;;;5017785;28;20029;-69
2022/10/16 09:39:22;;;;;;;21.13;19.77;;;;;;;;;;5016783;28;20037;-69
2022/10/16 09:41:48;;;;;;;21.00;19.80;;;;;;;;;;5019060;28;20459;-69
2022/10/16 09:44:22;;;;;;;21.67;20.48;;;;;;;;;;5016978;28;20069;-68
2022/10/16 09:46:47;;;;;;;16.75;15.75;;;;;;;;;;5016077;28;20115;-69
2022/10/16 09:49:24;;;;;;;15.45;14.55;;;;;;;;;;5014507;28;20112;-68
2022/10/16 09:51:50;;;;;;;14.93;14.02;;;;;;;;;;5015880;28;20033;-69
2022/10/16 09:54:20;;;;;;;15.68;14.77;;;;;;;;;;5014862;28;20045;-69
2022/10/16 09:56:51;;;;;;;13.25;12.32;;;;;;;;;;5013368;28;20033;-69
2022/10/16 09:59:23;;;;;;;11.43;10.63;;;;;;;;;;5015721;28;20034;-70
2022/10/16 10:01:51;;;;;;;10.23;9.63;;;;;;;;;;5016243;28;20029;-71
2022/10/16 10:04:21;;;;;;;9.30;8.70;;;;;;;;;;5015425;28;20109;-71
2022/10/16 10:06:55;;;;;;;10.90;10.20;;;;;;;;;;5015898;28;20510;-72
2022/10/16 10:09:38;;;;;;;9.13;8.52;;;;;;;;;;5015898;28;20132;-72
2022/10/16 10:12:06;;;;;;;9.93;9.32;;;;;;;;;;5023765;28;20714;-73
2022/10/16 10:14:48;;;;;;;11.15;10.45;;;;;;;;;;5014343;28;20030;-70
2022/10/16 10:17:24;;;;;;;10.90;10.20;;;;;;;;;;5017043;28;20032;-73
2022/10/16 10:19:55;;;;;;;11.15;10.45;;;;;;;;;;5015426;28;20099;-74
2022/10/16 10:22:26;;;;;;;12.70;11.88;;;;;;;;;;5016049;28;20048;-73
2022/10/16 10:25:00;;;;;;;11.63;10.93;;;;;;;;;;5014526;28;20459;-73
2022/10/16 10:27:47;;;;;;;13.88;12.88;;;;;;;;;;5018338;28;20084;-73
2022/10/16 10:30:19;;;;;;;12.02;11.25;;;;;;;;;;5014890;28;20105;-72
2022/10/16 10:32:50;;;;;;;11.85;11.15;;;;;;;;;;5019115;28;20030;-73
2022/10/16 10:35:24;;;;;;;15.20;13.85;;;;;;;;;;5015998;28;20463;-73
2022/10/16 10:38:32;;;;;;;11.70;10.95;;;;;;;;;;5019558;28;20041;-74
2022/10/16 10:41:17;;;;;;;10.32;9.63;;;;;;;;;;5003021;28;20049;-73
2022/10/16 10:44:15;;;;;;;10.02;9.38;;;;;;;;;;5017905;28;20046;-72
2022/10/16 10:46:55;;;;;;;11.02;10.32;;;;;;;;;;5049197;28;20040;-74
2022/10/16 10:49:28;;;;;;;12.17;11.40;;;;;;;;;;5020128;28;20029;-73
2022/10/16 10:52:33;;;;;;;12.38;11.57;;;;;;;;;;5017960;28;20447;-72
2022/10/16 10:55:36;;;;;;;10.23;9.63;;;;;;;;;;5012303;28;20037;-77
2022/10/16 10:58:24;;;;;;;13.15;12.35;;;;;;;;;;5017143;28;20503;-75
2022/10/16 11:01:00;;;;;;;13.25;12.40;;;;;;;;;;5015750;28;20394;-75
2022/10/16 11:03:32;;;;;;;46.88;44.47;;;;;;;;;;5028284;28;20124;-76
2022/10/16 11:06:17;;;;;;;46.45;44.10;;;;;;;;;;5018407;28;20029;-74
2022/10/16 11:08:53;;;;;;;52.60;49.75;;;;;;;;;;5015199;28;20042;-74
2022/10/16 11:11:33;;;;;;;52.70;50.00;;;;;;;;;;5016191;28;20120;-70
2022/10/16 11:14:19;;;;;;;44.22;41.97;;;;;;;;;;5026469;28;20040;-69
2022/10/16 11:17:05;;;;;;;45.15;42.85;;;;;;;;;;5015383;28;20064;-69
2022/10/16 11:19:36;;;;;;;36.95;35.03;;;;;;;;;;5020173;28;20072;-69
2022/10/16 11:22:14;;;;;;;45.38;42.92;;;;;;;;;;5014220;28;20033;-69
2022/10/16 11:24:47;;;;;;;43.20;40.97;;;;;;;;;;5018189;28;20033;-68
2022/10/16 11:27:17;;;;;;;47.28;44.45;;;;;;;;;;5014477;28;20041;-69
2022/10/16 11:29:53;;;;;;;39.83;37.75;;;;;;;;;;5017862;28;20685;-68
2022/10/16 11:32:25;;;;;;;37.92;35.95;;;;;;;;;;5014785;28;20038;-68
2022/10/16 11:35:08;;;;;;;39.03;36.72;;;;;;;;;;5020514;28;20100;-69
2022/10/16 11:37:39;;;;;;;37.35;35.42;;;;;;;;;;5016247;28;21469;-68
2022/10/16 11:40:28;;;;;;;28.20;26.70;;;;;;;;;;5016159;28;20037;-67
2022/10/16 11:43:17;;;;;;;32.63;30.95;;;;;;;;;;5016906;28;20030;-67
2022/10/16 11:45:46;;;;;;;32.00;30.35;;;;;;;;;;5014452;28;20156;-68
2022/10/16 11:48:38;;;;;;;38.17;36.22;;;;;;;;;;5014144;28;20029;-67
2022/10/16 11:51:32;;;;;;;31.52;29.88;;;;;;;;;;5017708;28;20105;-67
2022/10/16 11:54:16;;;;;;;30.73;29.13;;;;;;;;;;5016162;28;20033;-67
2022/10/16 11:56:44;;;;;;;44.15;41.90;;;;;;;;;;5011176;28;20030;-67
2022/10/16 11:59:35;;;;;;;39.55;37.53;;;;;;;;;;5013444;28;20034;-67
2022/10/16 12:02:03;;;;;;;28.00;26.52;;;;;;;;;;5013245;28;20038;-66
2022/10/16 12:04:50;;;;;;;25.45;24.10;;;;;;;;;;5016129;28;20036;-66
2022/10/16 12:07:27;;;;;;;23.13;21.90;;;;;;;;;;5016194;28;20061;-67
2022/10/16 12:09:52;;;;;;;19.88;18.77;;;;;;;;;;5017396;28;20460;-69
2022/10/16 12:12:26;;;;;;;21.77;20.58;;;;;;;;;;5015602;28;20038;-69
2022/10/16 12:15:23;;;;;;;24.75;23.42;;;;;;;;;;5017017;28;20049;-69
2022/10/16 12:17:49;;;;;;;19.10;18.08;;;;;;;;;;5018701;28;20042;-68
2022/10/16 12:20:22;;;;;;;26.98;25.52;;;;;;;;;;5020865;28;20042;-67
2022/10/16 12:23:07;;;;;;;41.63;39.42;;;;;;;;;;5022938;28;20099;-69
2022/10/16 12:25:34;;;;;;;35.70;33.72;;;;;;;;;;5023901;28;20037;-67
2022/10/16 12:28:07;;;;;;;47.80;45.30;;;;;;;;;;5019090;28;20029;-69
2022/10/16 12:30:36;;;;;;;51.83;48.88;;;;;;;;;;5020377;28;20036;-68
2022/10/16 12:33:05;;;;;;;59.90;56.88;;;;;;;;;;5020250;28;20029;-68
2022/10/16 12:35:34;;;;;;;67.38;63.45;;;;;;;;;;5022672;28;20044;-64
2022/10/16 12:38:36;;;;;;;43.47;41.17;;;;;;;;;;5022155;28;20022;-65
2022/10/16 12:41:08;;;;;;;22.70;21.50;;;;;;;;;;5036714;28;20415;-65
2022/10/16 12:43:42;;;;;;;21.67;20.33;;;;;;;;;;5016953;28;20036;-65
2022/10/16 12:46:07;;;;;;;20.90;19.80;;;;;;;;;;5019417;28;20279;-65
2022/10/16 12:48:33;;;;;;;21.05;19.95;;;;;;;;;;5020296;28;20364;-64
2022/10/16 12:51:21;;;;;;;18.95;17.92;;;;;;;;;;5005155;28;20091;-65
2022/10/16 12:54:00;;;;;;;18.52;17.52;;;;;;;;;;5019351;28;20037;-64
2022/10/16 12:56:45;;;;;;;19.73;18.63;;;;;;;;;;5023696;28;20125;-68
2022/10/16 12:59:22;;;;;;;17.48;16.50;;;;;;;;;;5023449;28;20113;-69
2022/10/16 13:02:13;;;;;;;20.23;19.13;;;;;;;;;;5020568;28;20040;-69
2022/10/16 13:05:04;;;;;;;19.85;18.77;;;;;;;;;;5019380;28;20025;-64
2022/10/16 13:08:07;;;;;;;21.33;20.23;;;;;;;;;;5018488;28;20108;-64
2022/10/16 13:10:41;;;;;;;22.63;21.35;;;;;;;;;;5019038;28;20037;-68
2022/10/16 13:13:12;;;;;;;31.70;30.05;;;;;;;;;;5020110;28;20044;-68
2022/10/16 13:15:59;;;;;;;24.40;23.10;;;;;;;;;;5016717;28;20060;-68
2022/10/16 13:18:58;;;;;;;19.17;18.15;;;;;;;;;;5018103;28;20108;-68
2022/10/16 13:21:50;;;;;;;18.48;17.48;;;;;;;;;;5022464;28;20030;-68
2022/10/16 13:24:23;;;;;;;18.52;17.50;;;;;;;;;;5019606;28;20036;-64
2022/10/16 13:27:05;;;;;;;18.55;17.55;;;;;;;;;;5022006;28;20037;-64
2022/10/16 13:29:32;;;;;;;20.10;18.92;;;;;;;;;;5020405;28;20037;-64
2022/10/16 13:32:00;;;;;;;30.15;28.50;;;;;;;;;;5022869;28;20029;-64
2022/10/16 13:34:26;;;;;;;26.70;25.27;;;;;;;;;;5018792;28;20548;-64
2022/10/16 13:36:53;;;;;;;25.08;23.75;;;;;;;;;;5017825;28;20024;-64
2022/10/16 13:39:27;;;;;;;18.67;17.63;;;;;;;;;;5019608;28;20225;-64
2022/10/16 13:42:06;;;;;;;23.85;22.52;;;;;;;;;;5020672;28;20488;-68
2022/10/16 13:44:39;;;;;;;21.02;19.90;;;;;;;;;;5019480;28;20472;-67
2022/10/16 13:47:04;;;;;;;16.77;15.88;;;;;;;;;;5017883;28;20199;-68
2022/10/16 13:49:30;;;;;;;19.17;18.10;;;;;;;;;;5017492;28;20598;-68
2022/10/16 13:51:59;;;;;;;16.90;16.00;;;;;;;;;;5022962;28;20029;-68
2022/10/16 13:54:26;;;;;;;17.57;16.57;;;;;;;;;;5019321;28;20579;-68
2022/10/16 13:56:52;;;;;;;17.40;16.40;;;;;;;;;;5017073;28;20030;-68
2022/10/16 13:59:33;;;;;;;17.92;16.92;;;;;;;;;;5019359;28;20102;-68
2022/10/16 14:02:04;;;;;;;17.48;16.48;;;;;;;;;;5015596;28;20121;-68
2022/10/16 14:04:32;;;;;;;18.10;17.10;;;;;;;;;;5019314;28;20141;-64
2022/10/16 14:06:58;;;;;;;18.92;17.88;;;;;;;;;;5016936;28;20026;-65
2022/10/16 14:09:26;;;;;;;19.40;18.33;;;;;;;;;;5016531;28;20625;-64
2022/10/16 14:12:07;;;;;;;17.65;16.65;;;;;;;;;;5018021;28;20117;-64
2022/10/16 14:14:41;;;;;;;17.88;16.88;;;;;;;;;;5020942;28;20045;-64
2022/10/16 14:17:14;;;;;;;20.80;19.65;;;;;;;;;;5018803;28;20033;-68
2022/10/16 14:19:40;;;;;;;24.63;23.25;;;;;;;;;;5019710;28;20495;-68
2022/10/16 14:22:36;;;;;;;24.98;23.65;;;;;;;;;;5015634;28;20033;-68
2022/10/16 14:25:22;;;;;;;27.80;26.33;;;;;;;;;;5017935;28;20114;-67
2022/10/16 14:28:14;;;;;;;24.38;23.08;;;;;;;;;;5019055;28;20463;-68
2022/10/16 14:30:54;;;;;;;21.33;20.15;;;;;;;;;;5007814;28;20153;-68
2022/10/16 14:33:24;;;;;;;25.15;23.63;;;;;;;;;;5016286;28;20427;-68
2022/10/16 14:36:12;;;;;;;19.77;18.67;;;;;;;;;;5015213;28;20030;-69
2022/10/16 14:38:39;;;;;;;17.67;16.60;;;;;;;;;;5025552;28;20108;-68
2022/10/16 14:41:05;;;;;;;21.25;20.02;;;;;;;;;;5017704;28;20038;-68